Bloom City, Wisconsin
Current Conditions -  °F | °C
As of 11:35 PM on Monday 26 Jan 2015 (Local Time) from KC35 Reporting Station
Haze Haze  
Wind Chill: 24°   Ceiling: 500
Heat Index: 24°   Visibility: 5mi
Dew Point: 23°   Wind: 0mph
Humidity: 97%   Direction: NA
Pressure: 29.91"   Gusts: NA
Location:  43.6121°N, 90.3998°W
Report Text: KC35 270535Z AUTO 00000KT 5SM BR OVC005 M05/M05 A2991 RMK AO2 T10471051
Loading
Personal Weather Stations






























Interactive Weather Map New forecast layout! Learn more

10-Day Weather Forecast

Advertisements
Track Severe Weather on mobile